sensor_id;sensor_type;location;lat;lon;timestamp;P1;durP1;ratioP1;P2;durP2;ratioP2
68484;SDS011;55472;50.060;21.960;2022-07-06T00:01:45;4.82;;;2.45;;
68484;SDS011;55472;50.060;21.960;2022-07-06T00:04:11;4.80;;;2.28;;
68484;SDS011;55472;50.060;21.960;2022-07-06T00:06:38;4.65;;;2.00;;
68484;SDS011;55472;50.060;21.960;2022-07-06T00:09:04;7.23;;;2.47;;
68484;SDS011;55472;50.060;21.960;2022-07-06T00:11:32;4.10;;;2.05;;
68484;SDS011;55472;50.060;21.960;2022-07-06T00:13:58;5.18;;;1.80;;
68484;SDS011;55472;50.060;21.960;2022-07-06T00:16:24;4.47;;;2.00;;
68484;SDS011;55472;50.060;21.960;2022-07-06T00:18:51;4.05;;;1.90;;
68484;SDS011;55472;50.060;21.960;2022-07-06T00:21:17;4.67;;;1.70;;
68484;SDS011;55472;50.060;21.960;2022-07-06T00:23:43;6.20;;;2.25;;
68484;SDS011;55472;50.060;21.960;2022-07-06T00:26:10;4.50;;;1.92;;
68484;SDS011;55472;50.060;21.960;2022-07-06T00:28:36;4.82;;;1.67;;
68484;SDS011;55472;50.060;21.960;2022-07-06T00:31:01;4.03;;;1.60;;
68484;SDS011;55472;50.060;21.960;2022-07-06T00:33:28;5.13;;;1.40;;
68484;SDS011;55472;50.060;21.960;2022-07-06T00:35:54;3.33;;;1.60;;
68484;SDS011;55472;50.060;21.960;2022-07-06T00:38:20;4.30;;;1.80;;
68484;SDS011;55472;50.060;21.960;2022-07-06T00:40:46;4.80;;;1.70;;
68484;SDS011;55472;50.060;21.960;2022-07-06T00:43:12;3.45;;;1.65;;
68484;SDS011;55472;50.060;21.960;2022-07-06T00:45:38;3.72;;;1.50;;
68484;SDS011;55472;50.060;21.960;2022-07-06T00:48:04;6.53;;;1.70;;
68484;SDS011;55472;50.060;21.960;2022-07-06T00:50:30;3.92;;;1.88;;
68484;SDS011;55472;50.060;21.960;2022-07-06T00:52:59;4.13;;;1.60;;
68484;SDS011;55472;50.060;21.960;2022-07-06T00:55:28;3.90;;;1.60;;
68484;SDS011;55472;50.060;21.960;2022-07-06T00:57:57;5.18;;;1.55;;
68484;SDS011;55472;50.060;21.960;2022-07-06T01:00:27;3.22;;;1.40;;
68484;SDS011;55472;50.060;21.960;2022-07-06T01:02:53;3.22;;;1.45;;
68484;SDS011;55472;50.060;21.960;2022-07-06T01:05:20;2.80;;;1.30;;
68484;SDS011;55472;50.060;21.960;2022-07-06T01:07:48;2.92;;;1.38;;
68484;SDS011;55472;50.060;21.960;2022-07-06T01:10:17;4.22;;;1.60;;
68484;SDS011;55472;50.060;21.960;2022-07-06T01:12:45;3.45;;;1.67;;
68484;SDS011;55472;50.060;21.960;2022-07-06T01:15:14;4.25;;;1.50;;
68484;SDS011;55472;50.060;21.960;2022-07-06T01:17:43;4.23;;;1.37;;
68484;SDS011;55472;50.060;21.960;2022-07-06T01:22:37;4.60;;;1.40;;
68484;SDS011;55472;50.060;21.960;2022-07-06T01:25:04;3.15;;;1.20;;
68484;SDS011;55472;50.060;21.960;2022-07-06T01:27:31;3.10;;;1.65;;
68484;SDS011;55472;50.060;21.960;2022-07-06T01:30:02;4.13;;;1.43;;
68484;SDS011;55472;50.060;21.960;2022-07-06T01:32:30;4.80;;;1.67;;
68484;SDS011;55472;50.060;21.960;2022-07-06T01:34:55;3.90;;;1.40;;
68484;SDS011;55472;50.060;21.960;2022-07-06T01:37:21;2.83;;;1.38;;
68484;SDS011;55472;50.060;21.960;2022-07-06T01:39:47;3.77;;;1.70;;
68484;SDS011;55472;50.060;21.960;2022-07-06T01:42:13;4.75;;;1.50;;
68484;SDS011;55472;50.060;21.960;2022-07-06T01:44:39;3.55;;;1.30;;
68484;SDS011;55472;50.060;21.960;2022-07-06T01:47:05;3.33;;;1.40;;
68484;SDS011;55472;50.060;21.960;2022-07-06T01:49:31;3.17;;;1.10;;
68484;SDS011;55472;50.060;21.960;2022-07-06T01:51:57;4.88;;;1.40;;
68484;SDS011;55472;50.060;21.960;2022-07-06T01:54:23;2.67;;;0.90;;
68484;SDS011;55472;50.060;21.960;2022-07-06T01:56:49;2.30;;;0.93;;
68484;SDS011;55472;50.060;21.960;2022-07-06T01:59:15;2.37;;;0.90;;
68484;SDS011;55472;50.060;21.960;2022-07-06T02:01:41;3.50;;;1.10;;
68484;SDS011;55472;50.060;21.960;2022-07-06T02:04:08;1.90;;;0.80;;
68484;SDS011;55472;50.060;21.960;2022-07-06T02:06:33;2.92;;;0.90;;
68484;SDS011;55472;50.060;21.960;2022-07-06T02:09:00;2.83;;;0.80;;
68484;SDS011;55472;50.060;21.960;2022-07-06T02:11:25;2.42;;;1.02;;
68484;SDS011;55472;50.060;21.960;2022-07-06T02:13:53;2.35;;;1.13;;
68484;SDS011;55472;50.060;21.960;2022-07-06T02:16:19;1.83;;;0.77;;
68484;SDS011;55472;50.060;21.960;2022-07-06T02:18:45;2.33;;;1.00;;
68484;SDS011;55472;50.060;21.960;2022-07-06T02:21:11;2.83;;;1.20;;
68484;SDS011;55472;50.060;21.960;2022-07-06T02:23:37;2.38;;;0.98;;
68484;SDS011;55472;50.060;21.960;2022-07-06T02:26:03;2.55;;;1.00;;
68484;SDS011;55472;50.060;21.960;2022-07-06T02:28:29;3.40;;;1.20;;
68484;SDS011;55472;50.060;21.960;2022-07-06T02:30:55;2.30;;;0.93;;
68484;SDS011;55472;50.060;21.960;2022-07-06T02:33:21;2.80;;;1.08;;
68484;SDS011;55472;50.060;21.960;2022-07-06T02:35:47;3.00;;;1.13;;
68484;SDS011;55472;50.060;21.960;2022-07-06T02:38:13;3.40;;;0.90;;
68484;SDS011;55472;50.060;21.960;2022-07-06T02:40:39;2.20;;;0.90;;
68484;SDS011;55472;50.060;21.960;2022-07-06T02:43:05;3.95;;;1.00;;
68484;SDS011;55472;50.060;21.960;2022-07-06T02:45:31;4.35;;;0.90;;
68484;SDS011;55472;50.060;21.960;2022-07-06T02:47:57;2.72;;;0.80;;
68484;SDS011;55472;50.060;21.960;2022-07-06T02:50:24;2.65;;;0.80;;
68484;SDS011;55472;50.060;21.960;2022-07-06T02:52:50;3.03;;;0.60;;
68484;SDS011;55472;50.060;21.960;2022-07-06T02:55:17;3.92;;;0.68;;
68484;SDS011;55472;50.060;21.960;2022-07-06T02:57:43;3.25;;;0.60;;
68484;SDS011;55472;50.060;21.960;2022-07-06T03:00:09;4.25;;;0.90;;
68484;SDS011;55472;50.060;21.960;2022-07-06T03:02:36;3.40;;;0.88;;
68484;SDS011;55472;50.060;21.960;2022-07-06T03:05:02;4.23;;;0.80;;
68484;SDS011;55472;50.060;21.960;2022-07-06T03:07:29;3.97;;;1.10;;
68484;SDS011;55472;50.060;21.960;2022-07-06T03:09:55;2.67;;;0.80;;
68484;SDS011;55472;50.060;21.960;2022-07-06T03:12:20;2.80;;;0.88;;
68484;SDS011;55472;50.060;21.960;2022-07-06T03:14:47;6.63;;;1.20;;
68484;SDS011;55472;50.060;21.960;2022-07-06T03:17:13;3.90;;;0.90;;
68484;SDS011;55472;50.060;21.960;2022-07-06T03:19:38;6.13;;;1.05;;
68484;SDS011;55472;50.060;21.960;2022-07-06T03:22:05;4.68;;;1.33;;
68484;SDS011;55472;50.060;21.960;2022-07-06T03:24:31;6.97;;;1.23;;
68484;SDS011;55472;50.060;21.960;2022-07-06T03:26:56;4.00;;;1.10;;
68484;SDS011;55472;50.060;21.960;2022-07-06T03:29:22;5.05;;;1.20;;
68484;SDS011;55472;50.060;21.960;2022-07-06T03:31:48;2.83;;;1.25;;
68484;SDS011;55472;50.060;21.960;2022-07-06T03:34:14;2.50;;;1.30;;
68484;SDS011;55472;50.060;21.960;2022-07-06T03:36:40;2.50;;;1.25;;
68484;SDS011;55472;50.060;21.960;2022-07-06T03:39:06;2.42;;;1.30;;
68484;SDS011;55472;50.060;21.960;2022-07-06T03:41:32;2.60;;;1.33;;
68484;SDS011;55472;50.060;21.960;2022-07-06T03:43:58;4.55;;;1.42;;
68484;SDS011;55472;50.060;21.960;2022-07-06T03:46:24;2.80;;;1.30;;
68484;SDS011;55472;50.060;21.960;2022-07-06T03:48:50;2.30;;;1.20;;
68484;SDS011;55472;50.060;21.960;2022-07-06T03:51:16;2.95;;;1.50;;
68484;SDS011;55472;50.060;21.960;2022-07-06T03:53:42;3.53;;;1.50;;
68484;SDS011;55472;50.060;21.960;2022-07-06T03:56:08;3.97;;;1.57;;
68484;SDS011;55472;50.060;21.960;2022-07-06T03:58:53;4.28;;;1.40;;
68484;SDS011;55472;50.060;21.960;2022-07-06T04:01:23;2.92;;;1.30;;
68484;SDS011;55472;50.060;21.960;2022-07-06T04:03:50;3.45;;;1.30;;
68484;SDS011;55472;50.060;21.960;2022-07-06T04:06:16;3.40;;;1.45;;
68484;SDS011;55472;50.060;21.960;2022-07-06T04:08:42;3.33;;;1.27;;
68484;SDS011;55472;50.060;21.960;2022-07-06T04:11:08;2.50;;;1.10;;
68484;SDS011;55472;50.060;21.960;2022-07-06T04:13:34;3.65;;;1.20;;
68484;SDS011;55472;50.060;21.960;2022-07-06T04:16:00;3.70;;;1.20;;
68484;SDS011;55472;50.060;21.960;2022-07-06T04:18:26;2.17;;;1.00;;
68484;SDS011;55472;50.060;21.960;2022-07-06T04:20:52;4.47;;;1.30;;
68484;SDS011;55472;50.060;21.960;2022-07-06T04:23:18;3.15;;;1.50;;
68484;SDS011;55472;50.060;21.960;2022-07-06T04:25:44;3.85;;;1.50;;
68484;SDS011;55472;50.060;21.960;2022-07-06T04:28:10;3.53;;;1.40;;
68484;SDS011;55472;50.060;21.960;2022-07-06T04:30:36;3.05;;;1.83;;
68484;SDS011;55472;50.060;21.960;2022-07-06T04:33:02;2.80;;;1.55;;
68484;SDS011;55472;50.060;21.960;2022-07-06T04:35:28;3.72;;;1.55;;
68484;SDS011;55472;50.060;21.960;2022-07-06T04:37:54;4.10;;;1.90;;
68484;SDS011;55472;50.060;21.960;2022-07-06T04:40:20;2.83;;;1.38;;
68484;SDS011;55472;50.060;21.960;2022-07-06T04:42:46;4.20;;;1.55;;
68484;SDS011;55472;50.060;21.960;2022-07-06T04:45:12;3.00;;;1.40;;
68484;SDS011;55472;50.060;21.960;2022-07-06T04:47:38;4.33;;;1.60;;
68484;SDS011;55472;50.060;21.960;2022-07-06T04:50:04;3.97;;;1.80;;
68484;SDS011;55472;50.060;21.960;2022-07-06T04:52:31;2.80;;;1.38;;
68484;SDS011;55472;50.060;21.960;2022-07-06T04:54:57;2.97;;;1.58;;
68484;SDS011;55472;50.060;21.960;2022-07-06T04:57:23;3.53;;;1.60;;
68484;SDS011;55472;50.060;21.960;2022-07-06T04:59:51;4.20;;;1.60;;
68484;SDS011;55472;50.060;21.960;2022-07-06T05:02:17;3.08;;;1.67;;
68484;SDS011;55472;50.060;21.960;2022-07-06T05:04:44;2.95;;;1.50;;
68484;SDS011;55472;50.060;21.960;2022-07-06T05:07:10;3.75;;;1.80;;
68484;SDS011;55472;50.060;21.960;2022-07-06T05:09:35;3.50;;;1.53;;
68484;SDS011;55472;50.060;21.960;2022-07-06T05:12:02;3.90;;;1.90;;
68484;SDS011;55472;50.060;21.960;2022-07-06T05:14:28;3.65;;;1.90;;
68484;SDS011;55472;50.060;21.960;2022-07-06T05:16:54;3.40;;;1.80;;
68484;SDS011;55472;50.060;21.960;2022-07-06T05:19:20;4.03;;;1.80;;
68484;SDS011;55472;50.060;21.960;2022-07-06T05:21:46;3.40;;;2.00;;
68484;SDS011;55472;50.060;21.960;2022-07-06T05:24:11;3.42;;;1.88;;
68484;SDS011;55472;50.060;21.960;2022-07-06T05:26:37;3.30;;;1.90;;
68484;SDS011;55472;50.060;21.960;2022-07-06T05:29:03;4.23;;;1.67;;
68484;SDS011;55472;50.060;21.960;2022-07-06T05:31:29;4.05;;;1.92;;
68484;SDS011;55472;50.060;21.960;2022-07-06T05:33:56;3.60;;;2.10;;
68484;SDS011;55472;50.060;21.960;2022-07-06T05:36:22;3.87;;;2.00;;
68484;SDS011;55472;50.060;21.960;2022-07-06T05:38:47;4.80;;;2.83;;
68484;SDS011;55472;50.060;21.960;2022-07-06T05:41:13;6.40;;;2.35;;
68484;SDS011;55472;50.060;21.960;2022-07-06T05:43:39;3.80;;;1.85;;
68484;SDS011;55472;50.060;21.960;2022-07-06T05:46:05;3.30;;;1.60;;
68484;SDS011;55472;50.060;21.960;2022-07-06T05:48:31;7.47;;;2.15;;
68484;SDS011;55472;50.060;21.960;2022-07-06T05:51:16;4.35;;;1.90;;
68484;SDS011;55472;50.060;21.960;2022-07-06T05:53:42;4.18;;;1.90;;
68484;SDS011;55472;50.060;21.960;2022-07-06T05:56:08;3.73;;;2.07;;
68484;SDS011;55472;50.060;21.960;2022-07-06T05:58:34;6.87;;;3.33;;
68484;SDS011;55472;50.060;21.960;2022-07-06T06:01:00;7.15;;;3.00;;
68484;SDS011;55472;50.060;21.960;2022-07-06T06:03:26;4.63;;;2.35;;
68484;SDS011;55472;50.060;21.960;2022-07-06T06:05:52;3.43;;;1.90;;
68484;SDS011;55472;50.060;21.960;2022-07-06T06:08:18;3.47;;;2.42;;
68484;SDS011;55472;50.060;21.960;2022-07-06T06:10:44;4.50;;;1.90;;
68484;SDS011;55472;50.060;21.960;2022-07-06T06:13:10;3.50;;;2.00;;
68484;SDS011;55472;50.060;21.960;2022-07-06T06:15:45;4.20;;;1.90;;
68484;SDS011;55472;50.060;21.960;2022-07-06T06:18:11;3.83;;;2.38;;
68484;SDS011;55472;50.060;21.960;2022-07-06T06:20:37;3.60;;;1.88;;
68484;SDS011;55472;50.060;21.960;2022-07-06T06:23:03;4.53;;;2.00;;
68484;SDS011;55472;50.060;21.960;2022-07-06T06:25:30;5.00;;;3.03;;
68484;SDS011;55472;50.060;21.960;2022-07-06T06:28:07;3.08;;;2.00;;
68484;SDS011;55472;50.060;21.960;2022-07-06T06:30:35;3.25;;;1.90;;
68484;SDS011;55472;50.060;21.960;2022-07-06T06:33:13;3.38;;;1.88;;
68484;SDS011;55472;50.060;21.960;2022-07-06T06:35:44;4.65;;;1.92;;
68484;SDS011;55472;50.060;21.960;2022-07-06T06:38:13;3.13;;;1.80;;
68484;SDS011;55472;50.060;21.960;2022-07-06T06:40:40;3.95;;;1.77;;
68484;SDS011;55472;50.060;21.960;2022-07-06T06:43:06;3.95;;;1.70;;
68484;SDS011;55472;50.060;21.960;2022-07-06T06:45:32;5.22;;;1.80;;
68484;SDS011;55472;50.060;21.960;2022-07-06T06:47:58;3.90;;;1.60;;
68484;SDS011;55472;50.060;21.960;2022-07-06T06:50:25;4.07;;;1.60;;
68484;SDS011;55472;50.060;21.960;2022-07-06T06:52:51;4.50;;;1.48;;
68484;SDS011;55472;50.060;21.960;2022-07-06T06:55:17;3.33;;;1.95;;
68484;SDS011;55472;50.060;21.960;2022-07-06T06:57:43;2.92;;;1.65;;
68484;SDS011;55472;50.060;21.960;2022-07-06T07:00:10;2.93;;;1.53;;
68484;SDS011;55472;50.060;21.960;2022-07-06T07:02:36;3.20;;;1.70;;
68484;SDS011;55472;50.060;21.960;2022-07-06T07:05:04;3.22;;;1.60;;
68484;SDS011;55472;50.060;21.960;2022-07-06T07:07:30;3.45;;;1.80;;
68484;SDS011;55472;50.060;21.960;2022-07-06T07:09:56;4.40;;;1.95;;
68484;SDS011;55472;50.060;21.960;2022-07-06T07:12:23;3.60;;;1.90;;
68484;SDS011;55472;50.060;21.960;2022-07-06T07:14:48;3.33;;;1.80;;
68484;SDS011;55472;50.060;21.960;2022-07-06T07:17:15;3.00;;;1.80;;
68484;SDS011;55472;50.060;21.960;2022-07-06T07:19:41;3.20;;;1.80;;
68484;SDS011;55472;50.060;21.960;2022-07-06T07:22:07;3.90;;;1.83;;
68484;SDS011;55472;50.060;21.960;2022-07-06T07:24:33;3.67;;;1.75;;
68484;SDS011;55472;50.060;21.960;2022-07-06T07:26:59;3.10;;;1.70;;
68484;SDS011;55472;50.060;21.960;2022-07-06T07:29:25;2.78;;;1.63;;
68484;SDS011;55472;50.060;21.960;2022-07-06T07:31:51;2.75;;;1.65;;
68484;SDS011;55472;50.060;21.960;2022-07-06T07:34:17;3.30;;;1.60;;
68484;SDS011;55472;50.060;21.960;2022-07-06T07:36:43;3.47;;;1.55;;
68484;SDS011;55472;50.060;21.960;2022-07-06T07:39:09;2.75;;;1.45;;
68484;SDS011;55472;50.060;21.960;2022-07-06T07:41:35;2.85;;;1.55;;
68484;SDS011;55472;50.060;21.960;2022-07-06T07:44:04;3.30;;;1.40;;
68484;SDS011;55472;50.060;21.960;2022-07-06T07:46:30;2.78;;;1.23;;
68484;SDS011;55472;50.060;21.960;2022-07-06T07:48:56;2.92;;;1.33;;
68484;SDS011;55472;50.060;21.960;2022-07-06T07:51:22;2.25;;;1.25;;
68484;SDS011;55472;50.060;21.960;2022-07-06T07:53:47;2.70;;;1.50;;
68484;SDS011;55472;50.060;21.960;2022-07-06T07:56:14;3.92;;;1.48;;
68484;SDS011;55472;50.060;21.960;2022-07-06T07:58:39;3.90;;;1.30;;
68484;SDS011;55472;50.060;21.960;2022-07-06T08:01:05;3.47;;;1.30;;
68484;SDS011;55472;50.060;21.960;2022-07-06T08:03:31;3.07;;;1.13;;
68484;SDS011;55472;50.060;21.960;2022-07-06T08:05:58;4.55;;;1.50;;
68484;SDS011;55472;50.060;21.960;2022-07-06T08:08:24;2.45;;;1.25;;
68484;SDS011;55472;50.060;21.960;2022-07-06T08:10:50;4.85;;;2.13;;
68484;SDS011;55472;50.060;21.960;2022-07-06T08:13:16;3.47;;;1.90;;
68484;SDS011;55472;50.060;21.960;2022-07-06T08:15:42;3.57;;;1.80;;
68484;SDS011;55472;50.060;21.960;2022-07-06T08:18:08;3.05;;;1.60;;
68484;SDS011;55472;50.060;21.960;2022-07-06T08:20:35;2.63;;;1.38;;
68484;SDS011;55472;50.060;21.960;2022-07-06T08:23:02;3.97;;;1.50;;
68484;SDS011;55472;50.060;21.960;2022-07-06T08:25:29;2.50;;;1.15;;
68484;SDS011;55472;50.060;21.960;2022-07-06T08:27:56;2.40;;;1.20;;
68484;SDS011;55472;50.060;21.960;2022-07-06T08:30:22;2.78;;;1.40;;
68484;SDS011;55472;50.060;21.960;2022-07-06T08:32:48;3.08;;;1.48;;
68484;SDS011;55472;50.060;21.960;2022-07-06T08:35:14;2.80;;;1.27;;
68484;SDS011;55472;50.060;21.960;2022-07-06T08:37:40;7.20;;;1.77;;
68484;SDS011;55472;50.060;21.960;2022-07-06T08:40:06;2.70;;;1.40;;
68484;SDS011;55472;50.060;21.960;2022-07-06T08:42:35;2.47;;;1.30;;
68484;SDS011;55472;50.060;21.960;2022-07-06T08:45:03;4.75;;;1.40;;
68484;SDS011;55472;50.060;21.960;2022-07-06T08:47:32;3.38;;;1.27;;
68484;SDS011;55472;50.060;21.960;2022-07-06T08:50:01;3.33;;;1.70;;
68484;SDS011;55472;50.060;21.960;2022-07-06T08:52:28;3.22;;;1.40;;
68484;SDS011;55472;50.060;21.960;2022-07-06T08:54:56;3.17;;;1.38;;
68484;SDS011;55472;50.060;21.960;2022-07-06T08:57:22;3.38;;;1.27;;
68484;SDS011;55472;50.060;21.960;2022-07-06T08:59:50;4.85;;;1.40;;
68484;SDS011;55472;50.060;21.960;2022-07-06T09:02:16;3.87;;;1.20;;
68484;SDS011;55472;50.060;21.960;2022-07-06T09:04:44;5.80;;;1.33;;
68484;SDS011;55472;50.060;21.960;2022-07-06T09:07:13;2.47;;;1.10;;
68484;SDS011;55472;50.060;21.960;2022-07-06T09:09:40;4.13;;;1.27;;
68484;SDS011;55472;50.060;21.960;2022-07-06T09:12:09;4.20;;;1.52;;
68484;SDS011;55472;50.060;21.960;2022-07-06T09:14:38;3.83;;;1.40;;
68484;SDS011;55472;50.060;21.960;2022-07-06T09:17:04;2.78;;;1.30;;
68484;SDS011;55472;50.060;21.960;2022-07-06T09:19:32;2.60;;;1.10;;
68484;SDS011;55472;50.060;21.960;2022-07-06T09:22:00;2.53;;;1.20;;
68484;SDS011;55472;50.060;21.960;2022-07-06T09:24:26;3.75;;;1.30;;
68484;SDS011;55472;50.060;21.960;2022-07-06T09:26:54;3.67;;;1.10;;
68484;SDS011;55472;50.060;21.960;2022-07-06T09:29:26;2.70;;;1.30;;
68484;SDS011;55472;50.060;21.960;2022-07-06T09:32:00;3.58;;;1.00;;
68484;SDS011;55472;50.060;21.960;2022-07-06T09:34:40;5.32;;;3.05;;
68484;SDS011;55472;50.060;21.960;2022-07-06T09:37:14;2.58;;;1.30;;
68484;SDS011;55472;50.060;21.960;2022-07-06T09:39:40;2.60;;;1.10;;
68484;SDS011;55472;50.060;21.960;2022-07-06T09:42:08;3.47;;;1.17;;
68484;SDS011;55472;50.060;21.960;2022-07-06T09:44:35;4.15;;;1.25;;
68484;SDS011;55472;50.060;21.960;2022-07-06T09:47:04;2.78;;;1.27;;
68484;SDS011;55472;50.060;21.960;2022-07-06T09:49:33;8.40;;;1.30;;
68484;SDS011;55472;50.060;21.960;2022-07-06T09:52:09;2.40;;;1.27;;
68484;SDS011;55472;50.060;21.960;2022-07-06T09:54:36;4.88;;;0.90;;
68484;SDS011;55472;50.060;21.960;2022-07-06T09:57:04;5.43;;;1.10;;
68484;SDS011;55472;50.060;21.960;2022-07-06T09:59:32;3.83;;;1.00;;
68484;SDS011;55472;50.060;21.960;2022-07-06T10:02:01;3.97;;;1.30;;
68484;SDS011;55472;50.060;21.960;2022-07-06T10:04:30;5.10;;;1.10;;
68484;SDS011;55472;50.060;21.960;2022-07-06T10:06:57;2.40;;;1.17;;
68484;SDS011;55472;50.060;21.960;2022-07-06T10:09:25;2.20;;;1.00;;
68484;SDS011;55472;50.060;21.960;2022-07-06T10:11:54;6.53;;;3.08;;
68484;SDS011;55472;50.060;21.960;2022-07-06T10:14:26;4.05;;;1.40;;
68484;SDS011;55472;50.060;21.960;2022-07-06T10:16:58;3.90;;;1.30;;
68484;SDS011;55472;50.060;21.960;2022-07-06T10:19:26;3.22;;;1.00;;
68484;SDS011;55472;50.060;21.960;2022-07-06T10:21:56;3.22;;;1.20;;
68484;SDS011;55472;50.060;21.960;2022-07-06T10:24:25;3.13;;;1.23;;
68484;SDS011;55472;50.060;21.960;2022-07-06T10:26:53;4.10;;;1.20;;
68484;SDS011;55472;50.060;21.960;2022-07-06T10:29:21;3.67;;;1.20;;
68484;SDS011;55472;50.060;21.960;2022-07-06T10:31:49;2.70;;;1.23;;
68484;SDS011;55472;50.060;21.960;2022-07-06T10:34:17;4.88;;;1.30;;
68484;SDS011;55472;50.060;21.960;2022-07-06T10:36:48;2.67;;;1.10;;
68484;SDS011;55472;50.060;21.960;2022-07-06T10:39:31;2.97;;;1.20;;
68484;SDS011;55472;50.060;21.960;2022-07-06T10:42:38;3.03;;;1.30;;
68484;SDS011;55472;50.060;21.960;2022-07-06T10:45:08;3.30;;;1.45;;
68484;SDS011;55472;50.060;21.960;2022-07-06T10:47:36;3.60;;;1.42;;
68484;SDS011;55472;50.060;21.960;2022-07-06T10:50:03;4.05;;;1.50;;
68484;SDS011;55472;50.060;21.960;2022-07-06T10:57:58;4.65;;;1.40;;
68484;SDS011;55472;50.060;21.960;2022-07-06T11:00:26;3.83;;;1.48;;
68484;SDS011;55472;50.060;21.960;2022-07-06T11:06:11;5.22;;;1.98;;
68484;SDS011;55472;50.060;21.960;2022-07-06T11:08:43;4.43;;;1.50;;
68484;SDS011;55472;50.060;21.960;2022-07-06T11:11:37;5.40;;;1.60;;
68484;SDS011;55472;50.060;21.960;2022-07-06T11:14:11;3.85;;;1.50;;
68484;SDS011;55472;50.060;21.960;2022-07-06T11:19:22;4.27;;;1.60;;
68484;SDS011;55472;50.060;21.960;2022-07-06T11:21:56;3.42;;;1.50;;
68484;SDS011;55472;50.060;21.960;2022-07-06T11:24:30;4.22;;;1.60;;
68484;SDS011;55472;50.060;21.960;2022-07-06T11:26:59;5.47;;;1.60;;
68484;SDS011;55472;50.060;21.960;2022-07-06T11:29:26;3.27;;;1.50;;
68484;SDS011;55472;50.060;21.960;2022-07-06T11:31:54;3.97;;;1.70;;
68484;SDS011;55472;50.060;21.960;2022-07-06T11:34:27;3.55;;;1.60;;
68484;SDS011;55472;50.060;21.960;2022-07-06T11:36:59;6.35;;;1.90;;
68484;SDS011;55472;50.060;21.960;2022-07-06T11:39:36;4.22;;;1.75;;
68484;SDS011;55472;50.060;21.960;2022-07-06T11:42:08;4.77;;;1.70;;
68484;SDS011;55472;50.060;21.960;2022-07-06T11:44:36;3.67;;;1.80;;
68484;SDS011;55472;50.060;21.960;2022-07-06T11:47:04;5.30;;;1.63;;
68484;SDS011;55472;50.060;21.960;2022-07-06T11:49:31;4.43;;;1.80;;
68484;SDS011;55472;50.060;21.960;2022-07-06T11:52:00;5.88;;;3.63;;
68484;SDS011;55472;50.060;21.960;2022-07-06T11:54:33;3.87;;;1.80;;
68484;SDS011;55472;50.060;21.960;2022-07-06T11:56:59;3.72;;;1.70;;
68484;SDS011;55472;50.060;21.960;2022-07-06T11:59:30;4.55;;;2.00;;
68484;SDS011;55472;50.060;21.960;2022-07-06T12:02:05;3.67;;;1.85;;
68484;SDS011;55472;50.060;21.960;2022-07-06T12:04:37;4.07;;;1.90;;
68484;SDS011;55472;50.060;21.960;2022-07-06T12:07:09;3.20;;;1.60;;
68484;SDS011;55472;50.060;21.960;2022-07-06T12:09:39;2.83;;;1.42;;
68484;SDS011;55472;50.060;21.960;2022-07-06T12:12:08;3.75;;;1.90;;
68484;SDS011;55472;50.060;21.960;2022-07-06T12:14:36;4.38;;;1.60;;
68484;SDS011;55472;50.060;21.960;2022-07-06T12:17:11;3.63;;;1.88;;
68484;SDS011;55472;50.060;21.960;2022-07-06T12:19:39;3.60;;;1.90;;
68484;SDS011;55472;50.060;21.960;2022-07-06T12:22:07;3.03;;;1.70;;
68484;SDS011;55472;50.060;21.960;2022-07-06T12:24:34;4.03;;;1.70;;
68484;SDS011;55472;50.060;21.960;2022-07-06T12:27:16;5.50;;;1.90;;
68484;SDS011;55472;50.060;21.960;2022-07-06T12:29:45;3.20;;;1.70;;
68484;SDS011;55472;50.060;21.960;2022-07-06T12:34:42;4.78;;;1.80;;
68484;SDS011;55472;50.060;21.960;2022-07-06T12:37:09;3.80;;;2.15;;
68484;SDS011;55472;50.060;21.960;2022-07-06T12:39:41;4.20;;;1.75;;
68484;SDS011;55472;50.060;21.960;2022-07-06T12:42:15;2.85;;;1.80;;
68484;SDS011;55472;50.060;21.960;2022-07-06T12:44:43;3.40;;;1.80;;
68484;SDS011;55472;50.060;21.960;2022-07-06T12:47:16;5.22;;;2.10;;
68484;SDS011;55472;50.060;21.960;2022-07-06T12:49:49;4.65;;;1.92;;
68484;SDS011;55472;50.060;21.960;2022-07-06T12:52:37;3.45;;;2.00;;
68484;SDS011;55472;50.060;21.960;2022-07-06T12:55:04;5.03;;;2.00;;
68484;SDS011;55472;50.060;21.960;2022-07-06T12:57:43;3.13;;;1.87;;
68484;SDS011;55472;50.060;21.960;2022-07-06T13:00:13;3.47;;;2.00;;
68484;SDS011;55472;50.060;21.960;2022-07-06T13:02:43;5.57;;;2.40;;
68484;SDS011;55472;50.060;21.960;2022-07-06T13:05:12;3.55;;;1.98;;
68484;SDS011;55472;50.060;21.960;2022-07-06T13:07:44;4.18;;;1.98;;
68484;SDS011;55472;50.060;21.960;2022-07-06T13:10:12;3.13;;;1.90;;
68484;SDS011;55472;50.060;21.960;2022-07-06T13:12:39;3.60;;;1.98;;
68484;SDS011;55472;50.060;21.960;2022-07-06T13:15:06;3.08;;;1.90;;
68484;SDS011;55472;50.060;21.960;2022-07-06T13:17:33;4.18;;;2.40;;
68484;SDS011;55472;50.060;21.960;2022-07-06T13:20:00;3.55;;;1.90;;
68484;SDS011;55472;50.060;21.960;2022-07-06T13:22:26;3.80;;;1.90;;
68484;SDS011;55472;50.060;21.960;2022-07-06T13:24:52;3.78;;;2.10;;
68484;SDS011;55472;50.060;21.960;2022-07-06T13:27:18;4.32;;;2.05;;
68484;SDS011;55472;50.060;21.960;2022-07-06T13:29:44;4.00;;;2.05;;
68484;SDS011;55472;50.060;21.960;2022-07-06T13:32:10;4.70;;;2.00;;
68484;SDS011;55472;50.060;21.960;2022-07-06T13:34:36;3.35;;;1.83;;
68484;SDS011;55472;50.060;21.960;2022-07-06T13:37:03;4.95;;;2.10;;
68484;SDS011;55472;50.060;21.960;2022-07-06T13:39:29;5.20;;;1.92;;
68484;SDS011;55472;50.060;21.960;2022-07-06T13:41:56;4.70;;;2.20;;
68484;SDS011;55472;50.060;21.960;2022-07-06T13:44:25;3.90;;;1.90;;
68484;SDS011;55472;50.060;21.960;2022-07-06T13:46:51;6.15;;;2.20;;
68484;SDS011;55472;50.060;21.960;2022-07-06T13:49:17;4.95;;;2.08;;
68484;SDS011;55472;50.060;21.960;2022-07-06T13:51:43;4.30;;;1.90;;
68484;SDS011;55472;50.060;21.960;2022-07-06T13:54:09;4.63;;;2.10;;
68484;SDS011;55472;50.060;21.960;2022-07-06T13:56:37;6.60;;;2.30;;
68484;SDS011;55472;50.060;21.960;2022-07-06T13:59:04;5.13;;;2.70;;
68484;SDS011;55472;50.060;21.960;2022-07-06T14:01:31;8.90;;;2.80;;
68484;SDS011;55472;50.060;21.960;2022-07-06T14:03:57;6.70;;;4.70;;
68484;SDS011;55472;50.060;21.960;2022-07-06T14:06:23;6.53;;;3.10;;
68484;SDS011;55472;50.060;21.960;2022-07-06T14:08:49;8.10;;;2.90;;
68484;SDS011;55472;50.060;21.960;2022-07-06T14:11:16;5.50;;;3.30;;
68484;SDS011;55472;50.060;21.960;2022-07-06T14:13:43;6.57;;;3.20;;
68484;SDS011;55472;50.060;21.960;2022-07-06T14:16:09;4.93;;;2.93;;
68484;SDS011;55472;50.060;21.960;2022-07-06T14:18:35;5.50;;;2.78;;
68484;SDS011;55472;50.060;21.960;2022-07-06T14:21:01;7.88;;;3.30;;
68484;SDS011;55472;50.060;21.960;2022-07-06T14:23:29;6.07;;;3.30;;
68484;SDS011;55472;50.060;21.960;2022-07-06T14:25:55;6.18;;;3.17;;
68484;SDS011;55472;50.060;21.960;2022-07-06T14:28:22;6.03;;;3.20;;
68484;SDS011;55472;50.060;21.960;2022-07-06T14:30:49;6.72;;;3.20;;
68484;SDS011;55472;50.060;21.960;2022-07-06T14:33:15;5.40;;;3.13;;
68484;SDS011;55472;50.060;21.960;2022-07-06T14:35:45;5.05;;;3.17;;
68484;SDS011;55472;50.060;21.960;2022-07-06T14:38:14;5.25;;;3.20;;
68484;SDS011;55472;50.060;21.960;2022-07-06T14:40:41;5.03;;;3.13;;
68484;SDS011;55472;50.060;21.960;2022-07-06T14:43:08;6.32;;;3.20;;
68484;SDS011;55472;50.060;21.960;2022-07-06T14:45:35;6.15;;;2.95;;
68484;SDS011;55472;50.060;21.960;2022-07-06T14:48:02;5.65;;;3.30;;
68484;SDS011;55472;50.060;21.960;2022-07-06T14:50:28;7.22;;;3.05;;
68484;SDS011;55472;50.060;21.960;2022-07-06T14:52:54;5.20;;;3.23;;